Highlands Ranch, CO (80130)

9:23 AM MDT on August 30, 2014 (GMT -0600)
The Meadows - Buffalo Grass | Change Station
CLOSE
Current Station
Personal Weather Station
Location: Castle Rock, CO
Elevation: 6083 ft
Nearby Weather Stations

Elev 6083 ft 39.41 °N, 104.90 °W | Updated 2 seconds ago

Clear
Clear
66.2 °F
Feels Like 66.2 °F
N
2.2
Wind Variable Wind from West
Gusts 2.2 mph

Today
High -- | Low -- °F
--% Chance of Precip.
Yesterday
High -- | Low -- °F
Precip. -- in
6:26 AM 7:33 PM
Waxing Crescent, 22% visible
Pressure 29.96 in
Visibility 10.0 miles
Clouds Few 20000 ft
Dew Point 53 °F
Humidity 62%
Rainfall 0.00 in
Snow Depth Not available.
UV 3 out of 12
Pollen 10.50 out of 12
Ozone Good
PM2.5 Good
Flu Activity Not available.
METAR KAPA 301453Z 00000KT 10SM FEW200 20/06 A3013 RMK AO2 SLP146 T02000056 58001

More Conditions Fewer Conditions

Pressure 29.96 in
Visibility 10.0 miles
Clouds Few 20000 ft
Dew Point 53 °F
Humidity 62%
Rainfall 0.00 in
Snow Depth Not available.
UV 3 out of 12
Pollen 10.50 out of 12
Ozone Good
PM2.5 Good
Flu Activity Not available.
METAR KAPA 301453Z 00000KT 10SM FEW200 20/06 A3013 RMK AO2 SLP146 T02000056 58001

More Conditions Fewer Conditions

10-Day Weather Forecast

Almanac

Astronomy

Aug. 30, 2014 Rise Set
Actual Time 6:26 AM MDT 7:33 PM MDT
Civil Twilight 5:58 AM MDT 8:01 PM MDT
Nautical Twilight 5:25 AM MDT 8:34 PM MDT
Astronomical Twilight 4:51 AM MDT 9:08 PM MDT
Moon 11:14 AM MDT 10:11 PM MDT
Length of Visible Light 14h 02m
Length of Day
13h 07m
Tomorrow will be 2m 28s shorter.
Waxing Crescent, 22% of the Moon is Illuminated
Today
Waxing Crescent
Sep 2
First Quarter
Sep 8
Full
Sep 15
Last Quarter
Sep 24
New

Today's Extremes

State Highs State Lows

Community

WunderPhotos

Upload Photos

1,748,548 photos uploaded!

WunderBlogs® & News

Nearby

Air Quality

  Air Quality AQ Index Pollutant
Yesterday Good
OZONE
Yesterday Good
PM10
Current Good
PM2.5
Current Good
OZONE
Saturday Good
OZONE
Saturday Good
PM2.5

Snow Depth

Station Depth Elevation
Echo Lake 0 in 10600 ft
Jackwhacker Gulch 1 in 10960 ft
Berthoud Summit 0 in 11300 ft
Grizzly Peak 0 in 11100 ft
Michigan Creek 0 in 10600 ft

Earthquake Activity

City Distance Mag. Time & Date
No recent earthquake activity has been reported nearby.
Minimum magnitude displayed is 2.5.

Coastal Water Temperatures

Place Temperature
No Stations Reporting

Nearby Weather Stations